createdAt,value
2023-03-24T00:13:40.570Z,10.76
2023-03-24T00:28:48.427Z,10.34
2023-03-24T00:43:58.566Z,9.96
2023-03-24T00:59:02.772Z,9.93
2023-03-24T01:14:20.570Z,9.80
2023-03-24T01:29:25.031Z,9.56
2023-03-24T01:44:35.511Z,9.38
2023-03-24T01:59:59.314Z,9.43
2023-03-24T02:15:05.521Z,9.52
2023-03-24T02:30:50.304Z,9.56
2023-03-24T02:46:00.732Z,9.64
2023-03-24T03:01:31.901Z,9.80
2023-03-24T03:17:01.709Z,9.58
2023-03-24T03:32:29.344Z,9.36
2023-03-24T03:47:34.583Z,9.32
2023-03-24T04:03:08.306Z,9.49
2023-03-24T04:18:28.879Z,9.69
2023-03-24T04:34:04.135Z,9.61
2023-03-24T04:49:09.096Z,9.33
2023-03-24T05:04:12.907Z,9.27
2023-03-24T05:19:17.214Z,9.36
2023-03-24T05:34:24.097Z,9.38
2023-03-24T05:49:28.357Z,9.63
2023-03-24T06:04:32.828Z,9.91
2023-03-24T06:19:38.910Z,10.17
2023-03-24T06:34:43.230Z,10.38
2023-03-24T06:49:46.983Z,10.64
2023-03-24T07:04:54.192Z,11.18
2023-03-24T07:19:58.508Z,11.80
2023-03-24T07:35:18.561Z,12.12
2023-03-24T07:59:49.762Z,12.53
2023-03-24T08:14:53.719Z,12.67
2023-03-24T08:30:17.581Z,12.83
2023-03-24T08:45:24.977Z,13.06
2023-03-24T09:00:29.741Z,13.52
2023-03-24T09:15:34.016Z,14.23
2023-03-24T09:30:38.134Z,14.57
2023-03-24T09:45:56.570Z,14.87
2023-03-24T10:01:01.440Z,15.47
2023-03-24T10:17:02.652Z,15.66
2023-03-24T10:32:22.993Z,15.78
2023-03-24T10:47:32.925Z,16.08
2023-03-24T11:02:38.210Z,15.95
2023-03-24T11:17:43.416Z,15.73
2023-03-24T11:33:04.182Z,15.73
2023-03-24T11:48:51.731Z,15.71
2023-03-24T12:04:18.827Z,15.79
2023-03-24T12:19:50.259Z,15.94
2023-03-24T12:35:13.622Z,16.18
2023-03-24T12:50:18.263Z,16.96
2023-03-24T13:05:31.859Z,17.45
2023-03-24T13:21:18.272Z,17.62
2023-03-24T13:36:57.364Z,17.70
2023-03-24T13:52:29.620Z,17.56
2023-03-24T14:07:39.732Z,17.70
2023-03-24T14:22:57.772Z,17.63
2023-03-24T14:38:26.201Z,17.84
2023-03-24T14:53:31.227Z,18.11
2023-03-24T15:08:37.721Z,17.65
2023-03-24T15:24:01.477Z,17.24
2023-03-24T15:39:19.427Z,16.89
2023-03-24T15:54:41.815Z,16.34
2023-03-24T16:10:04.916Z,15.34
2023-03-24T16:25:23.433Z,14.74
2023-03-24T16:40:51.224Z,14.13
2023-03-24T16:55:56.338Z,13.55
2023-03-24T17:11:17.564Z,13.11
2023-03-24T17:26:24.797Z,13.03
2023-03-24T17:56:47.951Z,12.64
2023-03-24T18:27:10.232Z,12.78
2023-03-24T18:42:28.493Z,12.33
2023-03-24T18:57:33.786Z,12.03
2023-03-24T19:12:38.448Z,11.86
2023-03-24T19:27:42.745Z,11.80
2023-03-24T19:42:47.149Z,11.60
2023-03-24T19:57:51.730Z,11.14
2023-03-24T20:12:56.698Z,10.76
2023-03-24T20:43:19.528Z,10.38
2023-03-24T20:58:23.994Z,10.23
2023-03-24T21:13:36.916Z,10.29
2023-03-24T21:28:42.249Z,10.30
2023-03-24T21:44:00.877Z,10.06
2023-03-24T21:59:05.538Z,9.82
2023-03-24T22:14:09.926Z,9.84
2023-03-24T22:29:14.159Z,9.91
2023-03-24T22:44:20.000Z,9.73
2023-03-24T22:59:25.175Z,9.41
2023-03-24T23:14:29.524Z,9.42
2023-03-24T23:29:34.327Z,9.35
2023-03-24T23:44:39.271Z,8.99
2023-03-24T23:59:43.789Z,8.67
